Time;durP1;ratioP1;P1;durP2;ratioP2;P2;SDS_P1;SDS_P2;PMS_P1;PMS_P2;Temp;Humidity;BMP_temperature;BMP_pressure;BME280_temperature;BME280_humidity;BME280_pressure;Samples;Min_cycle;Max_cycle;Signal;HPM_P1;HPM_P2
2022/07/16 00:02:10;;;;;;;;;;;;;;;14.32;50.28;100867.41;1711240;83;20165;-75
2022/07/16 00:04:35;;;;;;;;;;;;;;;14.31;50.33;100867.92;1729055;83;20175;-75
2022/07/16 00:07:01;;;;;;;;;;;;;;;14.30;50.34;100870.27;1708315;83;20202;-76
2022/07/16 00:09:27;;;;;;;;;;;;;;;14.31;50.37;100873.28;1728717;83;21159;-76
2022/07/16 00:11:53;;;;;;;;;;;;;;;14.30;50.40;100862.72;1727206;83;20194;-76
2022/07/16 00:14:19;;;;;;;;;;;;;;;14.31;50.44;100862.55;1710176;81;20250;-76
2022/07/16 00:16:45;;;;;;;;;;;;;;;14.32;50.47;100863.39;1721982;81;20959;-75
2022/07/16 00:19:18;;;;;;;;;;;;;;;14.31;50.51;100863.89;1715069;81;20200;-75
2022/07/16 00:21:45;;;;;;;;;;;;;;;14.30;50.54;100856.85;1707731;83;22187;-75
2022/07/16 00:24:11;;;;;;;;;;;;;;;14.30;50.57;100857.36;1705478;83;20190;-75
2022/07/16 00:26:37;;;;;;;;;;;;;;;14.30;50.61;100853.33;1707126;83;20261;-75
2022/07/16 00:29:03;;;;;;;;;;;;;;;14.29;50.62;100852.49;1714540;83;20187;-76
2022/07/16 00:31:28;;;;;;;;;;;;;;;14.29;50.64;100851.15;1703837;83;20226;-76
2022/07/16 00:33:54;;;;;;;;;;;;;;;14.28;50.67;100845.48;1706578;83;21094;-76
2022/07/16 00:36:20;;;;;;;;;;;;;;;14.29;50.73;100843.09;1701996;83;20204;-75
2022/07/16 00:38:46;;;;;;;;;;;;;;;14.29;50.76;100839.08;1710883;83;20300;-75
2022/07/16 00:41:18;;;;;;;;;;;;;;;14.31;50.78;100829.52;1704179;83;20214;-75
2022/07/16 00:43:49;;;;;;;;;;;;;;;14.32;50.81;100837.36;1704305;83;20312;-75
2022/07/16 00:46:15;;;;;;;;;;;;;;;14.33;50.83;100833.67;1706889;83;21079;-76
2022/07/16 00:48:42;;;;;;;;;;;;;;;14.32;50.86;100818.58;1704276;83;20154;-76
2022/07/16 00:51:08;;;;;;;;;;;;;;;14.32;50.88;100819.92;1708493;83;20151;-76
2022/07/16 00:53:34;;;;;;;;;;;;;;;14.31;50.91;100820.13;1682573;83;20178;-75
2022/07/16 00:56:00;;;;;;;;;;;;;;;14.30;50.94;100824.66;1692549;84;20210;-76
2022/07/16 00:58:26;;;;;;;;;;;;;;;14.28;50.97;100818.66;1690012;84;21140;-75
2022/07/16 01:00:52;;;;;;;;;;;;;;;14.27;50.99;100818.31;1686194;84;20571;-76
2022/07/16 01:03:18;;;;;;;;;;;;;;;14.28;51.02;100821.33;1687911;84;20204;-75
2022/07/16 01:05:45;;;;;;;;;;;;;;;14.28;51.03;100821.84;1685776;84;20186;-76
2022/07/16 01:08:11;;;;;;;;;;;;;;;14.28;51.05;100819.99;1686410;84;20212;-76
2022/07/16 01:10:38;;;;;;;;;;;;;;;14.29;51.05;100816.27;1692333;84;21146;-76
2022/07/16 01:13:04;;;;;;;;;;;;;;;14.29;51.08;100816.27;1686639;84;20373;-76
2022/07/16 01:15:30;;;;;;;;;;;;;;;14.28;51.10;100810.60;1692899;84;20235;-76
2022/07/16 01:17:56;;;;;;;;;;;;;;;14.28;51.13;100811.94;1719078;81;20195;-76
2022/07/16 01:20:22;;;;;;;;;;;;;;;14.28;51.16;100810.60;1716090;81;20161;-76
2022/07/16 01:22:47;;;;;;;;;;;;;;;14.28;51.17;100813.28;1719402;81;21777;-76
2022/07/16 01:25:13;;;;;;;;;;;;;;;14.29;51.18;100811.41;1717944;81;20195;-76
2022/07/16 01:27:39;;;;;;;;;;;;;;;14.31;51.18;100810.23;1721520;81;20281;-76
2022/07/16 01:30:08;;;;;;;;;;;;;;;14.30;51.21;100809.89;1719503;81;20205;-76
2022/07/16 01:32:35;;;;;;;;;;;;;;;14.30;51.22;100804.53;1721885;81;20500;-75
2022/07/16 01:35:02;;;;;;;;;;;;;;;14.32;51.24;100805.17;1721444;81;21175;-76
2022/07/16 01:37:28;;;;;;;;;;;;;;;14.33;51.25;100802.81;1718997;81;20218;-75
2022/07/16 01:39:54;;;;;;;;;;;;;;;14.34;51.26;100797.81;1710414;81;20225;-76
2022/07/16 01:42:20;;;;;;;;;;;;;;;14.33;51.28;100800.14;1692697;81;20252;-76
2022/07/16 01:44:45;;;;;;;;;;;;;;;14.36;51.29;100791.74;1679704;83;20564;-76
2022/07/16 01:47:13;;;;;;;;;;;;;;;14.36;51.29;100791.74;1678246;83;22312;-76
2022/07/16 01:49:39;;;;;;;;;;;;;;;14.34;51.30;100788.42;1683707;83;20198;-76
2022/07/16 01:52:10;;;;;;;;;;;;;;;14.36;51.31;100792.25;1682105;83;20214;-76
2022/07/16 01:54:36;;;;;;;;;;;;;;;14.35;51.34;100791.44;1680831;83;20886;-76
2022/07/16 01:57:02;;;;;;;;;;;;;;;14.36;51.34;100787.72;1678077;83;20231;-76
2022/07/16 01:59:28;;;;;;;;;;;;;;;14.35;51.35;100783.39;1678204;83;21694;-76
2022/07/16 02:01:54;;;;;;;;;;;;;;;14.35;51.34;100783.39;1675264;85;20183;-76
2022/07/16 02:04:20;;;;;;;;;;;;;;;14.34;51.38;100780.88;1675470;85;20223;-76
2022/07/16 02:06:46;;;;;;;;;;;;;;;14.32;51.38;100776.99;1675443;85;20204;-76
2022/07/16 02:09:11;;;;;;;;;;;;;;;14.31;51.39;100781.22;1675751;85;20243;-76
2022/07/16 02:11:37;;;;;;;;;;;;;;;14.28;51.42;100773.55;1675407;85;21060;-76
2022/07/16 02:14:03;;;;;;;;;;;;;;;14.27;51.44;100769.19;1669990;85;20250;-76
2022/07/16 02:16:29;;;;;;;;;;;;;;;14.24;51.46;100762.35;1666960;85;20226;-76
2022/07/16 02:18:55;;;;;;;;;;;;;;;14.23;51.48;100767.38;1675308;85;20227;-76
2022/07/16 02:21:21;;;;;;;;;;;;;;;14.20;51.52;100767.76;1675392;85;20168;-76
2022/07/16 02:23:47;;;;;;;;;;;;;;;14.16;51.54;100763.77;1675203;85;21172;-76
2022/07/16 02:26:13;;;;;;;;;;;;;;;14.14;51.62;100764.48;1675612;85;20175;-76
2022/07/16 02:28:38;;;;;;;;;;;;;;;14.10;51.68;100757.81;1675638;85;20195;-76
2022/07/16 02:31:04;;;;;;;;;;;;;;;14.07;51.72;100755.50;1675641;85;20175;-76
2022/07/16 02:33:30;;;;;;;;;;;;;;;14.06;51.75;100753.83;1675541;85;20195;-75
2022/07/16 02:35:56;;;;;;;;;;;;;;;14.05;51.80;100754.00;1675017;85;21817;-76
2022/07/16 02:38:22;;;;;;;;;;;;;;;14.05;51.81;100749.97;1674946;85;20664;-76
2022/07/16 02:40:48;;;;;;;;;;;;;;;14.02;51.85;100752.52;1675686;85;20219;-76
2022/07/16 02:43:14;;;;;;;;;;;;;;;14.00;51.89;100755.91;1698960;83;20744;-76
2022/07/16 02:45:40;;;;;;;;;;;;;;;13.98;51.91;100755.23;1710645;84;20179;-76
2022/07/16 02:48:07;;;;;;;;;;;;;;;13.96;51.98;100756.78;1710675;84;21205;-76
2022/07/16 02:50:32;;;;;;;;;;;;;;;13.94;52.03;100757.95;1714326;83;20159;-75
2022/07/16 02:52:58;;;;;;;;;;;;;;;13.91;52.07;100762.35;1711974;82;20226;-76
2022/07/16 02:55:24;;;;;;;;;;;;;;;13.92;52.12;100760.00;1710341;84;20180;-75
2022/07/16 02:57:50;;;;;;;;;;;;;;;13.90;52.16;100757.99;1708369;83;20752;-76
2022/07/16 03:00:16;;;;;;;;;;;;;;;13.88;52.22;100754.67;1708060;84;21086;-76
2022/07/16 03:02:42;;;;;;;;;;;;;;;13.89;52.27;100752.33;1705684;84;20185;-75
2022/07/16 03:05:09;;;;;;;;;;;;;;;13.88;52.31;100753.34;1708703;83;20219;-76
2022/07/16 03:07:35;;;;;;;;;;;;;;;13.88;52.37;100753.34;1709963;84;20181;-75
2022/07/16 03:10:01;;;;;;;;;;;;;;;13.88;52.39;100751.49;1710019;84;20195;-76
2022/07/16 03:12:26;;;;;;;;;;;;;;;13.87;52.43;100751.16;1688682;84;21804;-75
2022/07/16 03:14:52;;;;;;;;;;;;;;;13.86;52.48;100751.36;1702257;84;20243;-76
2022/07/16 03:17:18;;;;;;;;;;;;;;;13.86;52.53;100750.02;1709655;83;20247;-76
2022/07/16 03:19:44;;;;;;;;;;;;;;;13.85;52.57;100751.02;1705435;83;20724;-76
2022/07/16 03:22:10;;;;;;;;;;;;;;;13.84;52.64;100747.50;1706584;84;20180;-75
2022/07/16 03:24:36;;;;;;;;;;;;;;;13.82;52.68;100749.55;1709509;84;21567;-76
2022/07/16 03:27:02;;;;;;;;;;;;;;;13.82;52.73;100747.38;1705817;83;20226;-75
2022/07/16 03:29:27;;;;;;;;;;;;;;;13.82;52.78;100748.71;1707298;83;20267;-76
2022/07/16 03:31:53;;;;;;;;;;;;;;;13.81;52.82;100752.40;1704813;83;20720;-76
2022/07/16 03:34:19;;;;;;;;;;;;;;;13.82;52.87;100751.39;1696937;84;20180;-76
2022/07/16 03:36:45;;;;;;;;;;;;;;;13.81;52.93;100756.42;1705871;84;21181;-76
2022/07/16 03:39:11;;;;;;;;;;;;;;;13.77;52.98;100748.41;1707525;83;20215;-76
2022/07/16 03:41:37;;;;;;;;;;;;;;;13.77;53.07;100753.77;1706487;84;20246;-75
2022/07/16 03:44:06;;;;;;;;;;;;;;;13.77;53.12;100757.30;1725889;82;20670;-75
2022/07/16 03:46:32;;;;;;;;;;;;;;;13.79;53.19;100753.91;1728685;83;20161;-76
2022/07/16 03:48:58;;;;;;;;;;;;;;;13.79;53.24;100752.56;1729157;83;21119;-75
2022/07/16 03:51:24;;;;;;;;;;;;;;;13.81;53.31;100752.40;1729175;83;20783;-75
2022/07/16 03:53:50;;;;;;;;;;;;;;;13.83;53.37;100758.40;1729161;83;20215;-75
2022/07/16 03:56:15;;;;;;;;;;;;;;;13.84;53.41;100752.03;1729311;83;20175;-75
2022/07/16 03:58:41;;;;;;;;;;;;;;;13.87;53.43;100750.32;1729427;83;20787;-75
2022/07/16 04:01:07;;;;;;;;;;;;;;;13.90;53.49;100748.61;1729467;83;21174;-75
2022/07/16 04:03:33;;;;;;;;;;;;;;;13.92;53.50;100751.45;1729195;83;20198;-75
2022/07/16 04:05:59;;;;;;;;;;;;;;;13.94;53.57;100749.91;1729545;83;20180;-76
2022/07/16 04:08:25;;;;;;;;;;;;;;;13.97;53.58;100754.91;1729372;83;20649;-75
2022/07/16 04:10:51;;;;;;;;;;;;;;;13.99;53.63;100751.55;1729511;83;20183;-75
2022/07/16 04:13:17;;;;;;;;;;;;;;;14.01;53.70;100753.53;1729312;83;21072;-75
2022/07/16 04:15:43;;;;;;;;;;;;;;;14.04;53.77;100755.84;1729447;83;20300;-75
2022/07/16 04:18:09;;;;;;;;;;;;;;;14.06;53.83;100751.65;1729267;83;20187;-76
2022/07/16 04:20:35;;;;;;;;;;;;;;;14.08;53.89;100749.09;1729213;83;20159;-76
2022/07/16 04:23:01;;;;;;;;;;;;;;;14.12;53.90;100750.40;1729481;83;20533;-76
2022/07/16 04:25:27;;;;;;;;;;;;;;;14.14;53.93;100748.38;1729200;83;21156;-76
2022/07/16 04:27:53;;;;;;;;;;;;;;;14.16;53.98;100746.34;1729580;83;21037;-76
2022/07/16 04:30:18;;;;;;;;;;;;;;;14.16;54.02;100747.67;1729579;83;20250;-76
2022/07/16 04:32:44;;;;;;;;;;;;;;;14.17;54.08;100743.98;1729512;83;20235;-75
2022/07/16 04:35:11;;;;;;;;;;;;;;;14.18;54.14;100740.27;1727815;83;20215;-76
2022/07/16 04:37:37;;;;;;;;;;;;;;;14.17;54.19;100737.28;1729356;83;20649;-75
2022/07/16 04:40:04;;;;;;;;;;;;;;;14.20;54.27;100740.94;1729452;83;20183;-76
2022/07/16 04:42:30;;;;;;;;;;;;;;;14.19;54.31;100737.92;1727930;83;20169;-76
2022/07/16 04:44:56;;;;;;;;;;;;;;;14.21;54.37;100728.36;1722008;82;20733;-76
2022/07/16 04:47:22;;;;;;;;;;;;;;;14.22;54.40;100730.83;1723858;82;20160;-76
2022/07/16 04:49:48;;;;;;;;;;;;;;;14.21;54.43;100731.87;1715855;83;21182;-75
2022/07/16 04:52:13;;;;;;;;;;;;;;;14.21;54.51;100733.72;1715660;83;20199;-76
2022/07/16 04:54:39;;;;;;;;;;;;;;;14.21;54.57;100737.74;1715934;83;20187;-76
2022/07/16 04:57:05;;;;;;;;;;;;;;;14.19;54.63;100732.55;1716160;83;20160;-76
2022/07/16 04:59:31;;;;;;;;;;;;;;;14.21;54.70;100730.53;1715968;83;20223;-76
2022/07/16 05:02:56;;;;;;;;;;;;;;;14.22;54.80;100728.66;1716200;83;21190;-76
2022/07/16 05:04:24;;;;;;;;;;;;;;;14.22;54.88;100726.81;1710898;83;20500;-76
2022/07/16 05:06:50;;;;;;;;;;;;;;;14.25;54.96;100733.14;1716047;83;20203;-76
2022/07/16 05:09:16;;;;;;;;;;;;;;;14.29;55.01;100719.69;1716144;83;20227;-76
2022/07/16 05:11:42;;;;;;;;;;;;;;;14.33;55.07;100719.64;1715962;83;20235;-76
2022/07/16 05:14:08;;;;;;;;;;;;;;;14.38;55.14;100714.59;1716046;83;21121;-76
2022/07/16 05:16:33;;;;;;;;;;;;;;;14.47;55.16;100720.67;1715914;83;20187;-76
2022/07/16 05:18:59;;;;;;;;;;;;;;;14.53;55.18;100715.89;1716036;83;20235;-76
2022/07/16 05:21:25;;;;;;;;;;;;;;;14.59;55.22;100714.33;1715950;83;20220;-76
2022/07/16 05:23:51;;;;;;;;;;;;;;;14.60;55.28;100719.48;1716129;83;20387;-76
2022/07/16 05:26:17;;;;;;;;;;;;;;;14.66;55.32;100717.92;1716015;83;20727;-75
2022/07/16 05:28:43;;;;;;;;;;;;;;;14.73;55.34;100710.78;1695939;83;20182;-76
2022/07/16 05:31:08;;;;;;;;;;;;;;;14.79;55.35;100709.50;1716015;83;20271;-76
2022/07/16 05:33:34;;;;;;;;;;;;;;;14.87;55.41;100701.34;1715778;83;20199;-76
2022/07/16 05:36:00;;;;;;;;;;;;;;;14.95;55.41;100701.73;1713279;83;20184;-76
2022/07/16 05:38:26;;;;;;;;;;;;;;;15.10;55.42;100703.00;1715134;83;21093;-76
2022/07/16 05:40:52;;;;;;;;;;;;;;;15.26;55.39;100692.84;1715344;83;20278;-76
2022/07/16 05:43:18;;;;;;;;;;;;;;;15.44;55.37;100695.90;1715781;83;20165;-76
2022/07/16 05:45:44;;;;;;;;;;;;;;;15.62;55.34;100686.55;1727075;82;20193;-76
2022/07/16 05:48:10;;;;;;;;;;;;;;;15.74;55.32;100686.31;1717391;82;20247;-76
2022/07/16 05:50:35;;;;;;;;;;;;;;;15.93;55.27;100688.31;1715953;83;21188;-76
2022/07/16 05:53:01;;;;;;;;;;;;;;;16.08;55.21;100691.70;1715820;83;20819;-76
2022/07/16 05:55:27;;;;;;;;;;;;;;;16.30;55.12;100681.67;1716013;83;20239;-77
2022/07/16 05:57:53;;;;;;;;;;;;;;;16.43;55.00;100685.25;1710453;82;20916;-77
2022/07/16 06:00:19;;;;;;;;;;;;;;;16.48;54.89;100679.27;1715916;83;20168;-76
2022/07/16 06:02:45;;;;;;;;;;;;;;;16.43;54.84;100682.55;1716025;83;21645;-77
2022/07/16 06:05:11;;;;;;;;;;;;;;;16.39;54.77;100678.63;1715882;83;20321;-77
2022/07/16 06:07:37;;;;;;;;;;;;;;;16.45;54.73;100679.67;1710806;83;20282;-77
2022/07/16 06:10:04;;;;;;;;;;;;;;;16.67;54.66;100675.86;1714380;83;20228;-77
2022/07/16 06:12:30;;;;;;;;;;;;;;;17.10;54.62;100674.19;1716120;83;20161;-77
2022/07/16 06:14:56;;;;;;;;;;;;;;;17.91;54.38;100669.70;1716088;83;21081;-77
2022/07/16 06:17:22;;;;;;;;;;;;;;;18.12;54.08;100672.66;1715813;83;20199;-77
2022/07/16 06:19:47;;;;;;;;;;;;;;;18.16;53.82;100665.80;1716102;83;20211;-77
2022/07/16 06:22:13;;;;;;;;;;;;;;;18.01;53.55;100667.94;1715776;83;20231;-77
2022/07/16 06:24:39;;;;;;;;;;;;;;;17.99;53.41;100671.35;1715922;83;20235;-77
2022/07/16 06:27:05;;;;;;;;;;;;;;;17.94;53.26;100663.08;1715987;83;21157;-77
2022/07/16 06:29:31;;;;;;;;;;;;;;;17.92;53.08;100661.09;1716028;83;20216;-77
2022/07/16 06:31:57;;;;;;;;;;;;;;;17.89;52.96;100657.47;1715969;83;20207;-77
2022/07/16 06:34:23;;;;;;;;;;;;;;;17.86;52.84;100656.55;1715731;83;20235;-77
2022/07/16 06:36:49;;;;;;;;;;;;;;;17.78;52.66;100645.97;1714580;83;20227;-77
2022/07/16 06:39:15;;;;;;;;;;;;;;;17.75;52.63;100649.09;1714384;83;21116;-77
2022/07/16 06:41:41;;;;;;;;;;;;;;;17.67;52.58;100646.09;1715785;83;20246;-77
2022/07/16 06:44:09;;;;;;;;;;;;;;;17.68;52.52;100646.92;1712954;83;20263;-77
2022/07/16 06:46:35;;;;;;;;;;;;;;;17.76;52.45;100647.55;1726152;83;20146;-78
2022/07/16 06:49:02;;;;;;;;;;;;;;;17.84;52.43;100652.70;1705514;83;20187;-77
2022/07/16 06:51:27;;;;;;;;;;;;;;;17.81;52.35;100646.89;1712871;83;21204;-77
2022/07/16 06:53:53;;;;;;;;;;;;;;;17.93;52.34;100649.27;1710722;84;20199;-77
2022/07/16 06:56:19;;;;;;;;;;;;;;;17.98;52.19;100648.92;1710437;84;20179;-77
2022/07/16 06:58:45;;;;;;;;;;;;;;;18.02;52.11;100643.94;1710729;84;20188;-78
2022/07/16 07:01:11;;;;;;;;;;;;;;;17.98;52.07;100646.23;1710439;84;20235;-77
2022/07/16 07:03:40;;;;;;;;;;;;;;;17.90;51.92;100645.65;1710456;84;21687;-77
2022/07/16 07:06:07;;;;;;;;;;;;;;;17.78;51.88;100640.58;1692330;84;20174;-77
2022/07/16 07:08:32;;;;;;;;;;;;;;;17.85;51.88;100644.09;1710409;84;20496;-77
2022/07/16 07:11:04;;;;;;;;;;;;;;;18.22;51.80;100635.27;1710631;84;20220;-78
2022/07/16 07:13:27;;;;;;;;;;;;;;;18.39;51.67;100629.69;1708966;83;20149;-78
2022/07/16 07:15:53;;;;;;;;;;;;;;;19.07;51.63;100624.48;1731385;83;21716;-77
2022/07/16 07:18:19;;;;;;;;;;;;;;;19.85;51.27;100619.43;1716018;83;20188;-77
2022/07/16 07:20:45;;;;;;;;;;;;;;;20.03;50.59;100616.73;1703598;84;20218;-78
2022/07/16 07:23:11;;;;;;;;;;;;;;;19.88;50.10;100603.56;1707447;84;20148;-78
2022/07/16 07:25:37;;;;;;;;;;;;;;;19.85;49.71;100600.48;1704205;84;20578;-78
2022/07/16 07:28:03;;;;;;;;;;;;;;;20.36;49.36;100595.52;1703969;84;21827;-78
2022/07/16 07:30:29;;;;;;;;;;;;;;;20.97;48.88;100587.61;1708560;83;20189;-78
2022/07/16 07:32:55;;;;;;;;;;;;;;;21.16;48.20;100575.66;1703789;83;20424;-78
2022/07/16 07:35:21;;;;;;;;;;;;;;;21.60;48.06;100581.56;1708097;84;20236;-78
2022/07/16 07:37:47;;;;;;;;;;;;;;;21.76;47.04;100582.18;1705805;84;20243;-78
2022/07/16 07:40:13;;;;;;;;;;;;;;;21.70;46.23;100582.61;1719851;83;20606;-78
2022/07/16 07:42:39;;;;;;;;;;;;;;;21.55;45.92;100574.65;1710767;83;20199;-78
2022/07/16 07:45:07;;;;;;;;;;;;;;;21.62;45.82;100572.64;1720674;82;20189;-78
2022/07/16 07:47:33;;;;;;;;;;;;;;;22.17;45.72;100578.44;1712974;82;20500;-78
2022/07/16 07:49:59;;;;;;;;;;;;;;;22.09;44.62;100576.95;1703701;83;20235;-79
2022/07/16 07:52:25;;;;;;;;;;;;;;;21.43;43.78;100577.36;1703766;84;21057;-78
2022/07/16 07:54:51;;;;;;;;;;;;;;;20.85;43.40;100582.19;1703607;84;20631;-78
2022/07/16 07:57:17;;;;;;;;;;;;;;;20.41;43.46;100590.22;1703633;83;20195;-78
2022/07/16 07:59:42;;;;;;;;;;;;;;;20.04;43.55;100591.31;1703700;83;20729;-78
2022/07/16 08:02:09;;;;;;;;;;;;;;;19.63;43.62;100593.36;1703793;84;20181;-78
2022/07/16 08:04:34;;;;;;;;;;;;;;;19.47;43.86;100605.25;1703674;83;21913;-78
2022/07/16 08:07:00;;;;;;;;;;;;;;;19.34;44.02;100590.79;1703884;83;20190;-78
2022/07/16 08:09:26;;;;;;;;;;;;;;;19.28;44.19;100590.30;1703788;83;20172;-78
2022/07/16 08:11:52;;;;;;;;;;;;;;;19.34;44.37;100575.92;1703899;84;20735;-78
2022/07/16 08:14:18;;;;;;;;;;;;;;;19.30;44.49;100578.76;1703862;84;20160;-78
2022/07/16 08:16:44;;;;;;;;;;;;;;;19.23;44.58;100576.64;1705575;83;21170;-78
2022/07/16 08:19:10;;;;;;;;;;;;;;;19.15;44.72;100578.27;1721343;83;20779;-78
2022/07/16 08:21:36;;;;;;;;;;;;;;;19.17;44.90;100570.77;1703770;83;20222;-78
2022/07/16 08:26:47;;;;;;;;;;;;;;;19.31;45.06;100564.72;1706198;83;20172;-77
2022/07/16 08:29:13;;;;;;;;;;;;;;;19.36;45.18;100564.34;1731709;83;21156;-78
2022/07/16 08:31:39;;;;;;;;;;;;;;;19.30;45.20;100563.88;1731996;82;20788;-77
2022/07/16 08:34:05;;;;;;;;;;;;;;;19.20;45.27;100555.45;1725932;82;20226;-78
2022/07/16 08:36:30;;;;;;;;;;;;;;;19.23;45.39;100555.53;1716417;83;20235;-78
2022/07/16 08:38:56;;;;;;;;;;;;;;;19.29;45.49;100560.87;1703906;84;20242;-78
2022/07/16 08:41:22;;;;;;;;;;;;;;;19.37;45.57;100563.30;1703944;84;21171;-78
2022/07/16 08:43:48;;;;;;;;;;;;;;;19.47;45.58;100563.33;1704448;83;20155;-78
2022/07/16 08:46:15;;;;;;;;;;;;;;;19.42;45.49;100562.11;1726452;83;20235;-78
2022/07/16 08:48:40;;;;;;;;;;;;;;;19.33;45.53;100568.84;1710346;83;20823;-78
2022/07/16 08:51:09;;;;;;;;;;;;;;;19.21;45.64;100566.55;1710503;84;20184;-78
2022/07/16 08:53:35;;;;;;;;;;;;;;;19.11;45.80;100566.23;1710649;84;21150;-78
2022/07/16 08:56:01;;;;;;;;;;;;;;;18.91;45.95;100578.57;1710842;84;20188;-78
2022/07/16 08:58:29;;;;;;;;;;;;;;;18.61;46.34;100577.55;1705843;84;20484;-78
2022/07/16 09:00:55;;;;;;;;;;;;;;;18.26;46.97;100572.22;1710658;83;20177;-77
2022/07/16 09:03:21;;;;;;;;;;;;;;;17.93;47.95;100581.80;1710743;83;20445;-77
2022/07/16 09:05:49;;;;;;;;;;;;;;;17.67;48.99;100584.56;1710346;84;21163;-77
2022/07/16 09:08:16;;;;;;;;;;;;;;;17.53;49.60;100595.05;1710588;84;20198;-77
2022/07/16 09:10:42;;;;;;;;;;;;;;;17.44;49.97;100600.68;1710581;83;20492;-77
2022/07/16 09:13:11;;;;;;;;;;;;;;;17.40;50.24;100598.09;1710752;84;20176;-77
2022/07/16 09:15:39;;;;;;;;;;;;;;;17.38;50.63;100601.49;1710643;83;20170;-78
2022/07/16 09:18:09;;;;;;;;;;;;;;;17.33;50.99;100616.14;1711537;83;21021;-77
2022/07/16 09:20:38;;;;;;;;;;;;;;;17.22;51.57;100618.62;1710406;82;20158;-78
2022/07/16 09:23:03;;;;;;;;;;;;;;;16.88;52.68;100640.69;1709164;83;20157;-77
2022/07/16 09:25:29;;;;;;;;;;;;;;;16.58;53.81;100657.37;1710639;84;20751;-77
2022/07/16 09:27:59;;;;;;;;;;;;;;;16.28;54.50;100668.44;1709893;84;20188;-77
2022/07/16 09:30:25;;;;;;;;;;;;;;;16.02;55.32;100654.84;1691974;84;21816;-77
2022/07/16 09:32:51;;;;;;;;;;;;;;;15.80;56.17;100651.90;1713491;83;20626;-77
2022/07/16 09:35:18;;;;;;;;;;;;;;;15.68;56.73;100653.50;1713053;83;20207;-77
2022/07/16 09:37:51;;;;;;;;;;;;;;;15.63;57.34;100654.59;1700665;83;20167;-77
2022/07/16 09:40:35;;;;;;;;;;;;;;;15.63;57.84;100649.20;1699371;83;20152;-77
2022/07/16 09:43:01;;;;;;;;;;;;;;;15.71;58.26;100653.93;1703008;84;21159;-77
2022/07/16 09:45:28;;;;;;;;;;;;;;;15.78;58.96;100663.38;1722480;82;20167;-77
2022/07/16 09:47:54;;;;;;;;;;;;;;;15.87;59.64;100659.50;1719374;82;20185;-77
2022/07/16 09:50:20;;;;;;;;;;;;;;;15.95;60.05;100663.38;1716135;83;20160;-77
2022/07/16 09:52:46;;;;;;;;;;;;;;;16.11;60.52;100659.04;1715927;83;20181;-77
2022/07/16 09:55:11;;;;;;;;;;;;;;;16.22;60.97;100670.55;1721490;82;21780;-77
2022/07/16 09:57:37;;;;;;;;;;;;;;;16.23;61.35;100663.31;1719634;82;20199;-77
2022/07/16 10:00:11;;;;;;;;;;;;;;;16.30;61.88;100673.09;1699485;83;20267;-77
2022/07/16 10:02:37;;;;;;;;;;;;;;;16.29;62.24;100671.42;1698245;83;20179;-77
2022/07/16 10:05:03;;;;;;;;;;;;;;;16.20;62.57;100663.21;1720861;82;20199;-77
2022/07/16 10:07:29;;;;;;;;;;;;;;;16.12;62.91;100660.67;1715397;83;21147;-77
2022/07/16 10:09:55;;;;;;;;;;;;;;;16.12;63.47;100667.91;1715383;83;20203;-77
2022/07/16 10:12:21;;;;;;;;;;;;;;;15.98;63.91;100664.33;1716042;83;20192;-77
2022/07/16 10:14:50;;;;;;;;;;;;;;;15.95;64.50;100675.48;1715935;83;20830;-77
2022/07/16 10:17:18;;;;;;;;;;;;;;;16.28;65.00;100671.13;1697346;83;20177;-78
2022/07/16 10:19:45;;;;;;;;;;;;;;;16.39;65.30;100667.03;1715455;83;21040;-78
2022/07/16 10:22:13;;;;;;;;;;;;;;;16.55;65.46;100668.52;1714626;83;20150;-78
2022/07/16 10:24:48;;;;;;;;;;;;;;;16.71;65.56;100658.78;1715424;83;20193;-78
2022/07/16 10:27:35;;;;;;;;;;;;;;;16.96;65.72;100666.58;1713956;83;20181;-78
2022/07/16 10:30:19;;;;;;;;;;;;;;;17.38;65.87;100668.90;1715374;83;20153;-78
2022/07/16 10:33:09;;;;;;;;;;;;;;;17.52;65.94;100663.52;1715877;83;21044;-78
2022/07/16 10:35:47;;;;;;;;;;;;;;;17.80;65.95;100658.75;1713651;83;20209;-78
2022/07/16 10:38:22;;;;;;;;;;;;;;;18.07;65.75;100664.38;1684642;84;20436;-78
2022/07/16 10:41:15;;;;;;;;;;;;;;;18.39;65.62;100659.39;1714161;83;20154;-78
2022/07/16 10:43:45;;;;;;;;;;;;;;;18.64;65.22;100646.52;1621312;87;20192;-78
2022/07/16 10:46:13;;;;;;;;;;;;;;;18.71;64.69;100631.94;1608038;87;20177;-78
2022/07/16 10:48:43;;;;;;;;;;;;;;;18.59;64.25;100635.00;1595137;89;20183;-78
2022/07/16 10:51:18;;;;;;;;;;;;;;;18.87;64.10;100633.27;1614315;89;20208;-79
2022/07/16 10:54:03;;;;;;;;;;;;;;;19.02;63.75;100632.45;1614386;89;20179;-79
2022/07/16 10:56:45;;;;;;;;;;;;;;;19.25;63.37;100625.91;1664401;84;20539;-78
2022/07/16 10:59:16;;;;;;;;;;;;;;;19.34;62.82;100619.71;1680295;84;20882;-77
2022/07/16 11:01:44;;;;;;;;;;;;;;;19.38;62.58;100620.41;1675191;85;20703;-77
2022/07/16 11:04:11;;;;;;;;;;;;;;;19.57;62.20;100610.46;1675502;84;20179;-77
2022/07/16 11:06:37;;;;;;;;;;;;;;;19.61;61.59;100616.25;1675438;85;20150;-77
2022/07/16 11:09:04;;;;;;;;;;;;;;;19.80;61.50;100608.47;1675535;85;20198;-77
2022/07/16 11:11:41;;;;;;;;;;;;;;;20.00;61.14;100598.23;1675361;84;21147;-77
2022/07/16 11:14:09;;;;;;;;;;;;;;;19.84;60.41;100608.33;1669234;85;20157;-77
2022/07/16 11:16:36;;;;;;;;;;;;;;;19.86;60.02;100610.27;1673721;84;20156;-78
2022/07/16 11:19:02;;;;;;;;;;;;;;;20.10;59.47;100617.48;1674011;85;20207;-77
2022/07/16 11:21:28;;;;;;;;;;;;;;;20.09;58.67;100621.23;1674434;85;20175;-77
2022/07/16 11:23:56;;;;;;;;;;;;;;;20.26;57.91;100619.59;1675146;85;21835;-78
2022/07/16 11:26:22;;;;;;;;;;;;;;;20.39;57.00;100611.31;1675605;85;20182;-77
2022/07/16 11:29:02;;;;;;;;;;;;;;;20.48;55.52;100631.33;1675266;85;20459;-77
2022/07/16 11:31:30;;;;;;;;;;;;;;;20.64;54.74;100646.41;1674486;84;20828;-77
2022/07/16 11:34:00;;;;;;;;;;;;;;;20.09;53.64;100686.22;1675422;84;20159;-77
2022/07/16 11:36:31;;;;;;;;;;;;;;;18.87;51.80;100704.38;1675412;85;21143;-77
2022/07/16 11:39:03;;;;;;;;;;;;;;;18.04;51.47;100701.25;1675703;85;20131;-77
2022/07/16 11:41:32;;;;;;;;;;;;;;;17.43;51.15;100704.17;1675171;84;20187;-77
2022/07/16 11:43:59;;;;;;;;;;;;;;;17.15;51.22;100694.09;1675314;85;20597;-77
2022/07/16 11:46:27;;;;;;;;;;;;;;;17.05;51.16;100697.70;1703567;84;20174;-77
2022/07/16 11:48:52;;;;;;;;;;;;;;;16.94;51.12;100709.91;1710987;84;21080;-77
2022/07/16 11:51:19;;;;;;;;;;;;;;;16.80;51.01;100691.22;1717623;83;20200;-77
2022/07/16 11:53:54;;;;;;;;;;;;;;;16.71;50.98;100708.61;1708257;84;20193;-77
2022/07/16 11:56:33;;;;;;;;;;;;;;;16.80;50.94;100712.77;1709418;83;20726;-77
2022/07/16 11:59:00;;;;;;;;;;;;;;;16.87;50.76;100717.66;1713337;83;20182;-78
2022/07/16 12:01:32;;;;;;;;;;;;;;;16.73;50.76;100728.08;1717185;82;21989;-78
2022/07/16 12:03:57;;;;;;;;;;;;;;;16.57;50.94;100723.05;1717478;83;20153;-78
2022/07/16 12:06:23;;;;;;;;;;;;;;;16.37;51.23;100721.56;1706853;83;20175;-77
2022/07/16 12:08:52;;;;;;;;;;;;;;;16.18;51.73;100720.45;1708746;83;20243;-78
2022/07/16 12:11:18;;;;;;;;;;;;;;;16.06;52.33;100719.33;1705926;83;20472;-78
2022/07/16 12:13:54;;;;;;;;;;;;;;;15.86;52.96;100714.34;1708144;83;21122;-77
2022/07/16 12:16:20;;;;;;;;;;;;;;;15.90;53.57;100702.97;1708442;84;20154;-77
2022/07/16 12:19:03;;;;;;;;;;;;;;;16.18;54.27;100702.13;1708383;83;20454;-77
2022/07/16 12:21:31;;;;;;;;;;;;;;;16.45;54.63;100698.52;1705490;83;20605;-78
2022/07/16 12:23:57;;;;;;;;;;;;;;;16.64;55.05;100703.17;1708274;84;20153;-77
2022/07/16 12:26:28;;;;;;;;;;;;;;;16.58;55.44;100698.59;1708600;83;21711;-78
2022/07/16 12:28:54;;;;;;;;;;;;;;;16.71;55.81;100693.25;1686168;84;20513;-76
2022/07/16 12:31:22;;;;;;;;;;;;;;;16.83;56.12;100694.34;1709962;83;20165;-77
2022/07/16 12:33:51;;;;;;;;;;;;;;;17.07;56.42;100690.23;1710754;83;20187;-78
2022/07/16 12:36:18;;;;;;;;;;;;;;;17.25;56.48;100687.77;1669292;84;20445;-78
2022/07/16 12:39:04;;;;;;;;;;;;;;;17.45;56.59;100690.49;1708343;84;21111;-78